Time;durP1;ratioP1;P1;durP2;ratioP2;P2;SDS_P1;SDS_P2;PMS_P1;PMS_P2;Temp;Humidity;BMP_temperature;BMP_pressure;BME280_temperature;BME280_humidity;BME280_pressure;Samples;Min_cycle;Max_cycle;Signal;HPM_P1;HPM_P2
2022/04/07 00:01:41;;;;;;;4.07;1.85;;;;;;;;;;5026665;28;20053;-60
2022/04/07 00:04:07;;;;;;;4.10;1.70;;;;;;;;;;5022973;28;20100;-64
2022/04/07 00:06:34;;;;;;;5.18;1.75;;;;;;;;;;5031413;28;20062;-64
2022/04/07 00:09:03;;;;;;;3.22;1.40;;;;;;;;;;5026823;28;20075;-65
2022/04/07 00:11:30;;;;;;;4.45;1.90;;;;;;;;;;5034012;28;20045;-65
2022/04/07 00:13:58;;;;;;;3.67;1.85;;;;;;;;;;5027634;28;20050;-62
2022/04/07 00:16:24;;;;;;;2.92;1.60;;;;;;;;;;5032373;28;20076;-59
2022/04/07 00:18:51;;;;;;;6.40;1.65;;;;;;;;;;5024644;28;20099;-62
2022/04/07 00:21:24;;;;;;;3.55;1.70;;;;;;;;;;5011079;28;20060;-65
2022/04/07 00:23:51;;;;;;;5.75;1.58;;;;;;;;;;5006996;28;20085;-60
2022/04/07 00:26:17;;;;;;;3.38;1.70;;;;;;;;;;5029983;28;20103;-64
2022/04/07 00:28:44;;;;;;;4.47;1.65;;;;;;;;;;5030459;28;20068;-60
2022/04/07 00:31:12;;;;;;;4.35;1.77;;;;;;;;;;5024225;28;20117;-62
2022/04/07 00:33:39;;;;;;;3.00;1.40;;;;;;;;;;5030483;28;20053;-61
2022/04/07 00:36:05;;;;;;;4.38;1.75;;;;;;;;;;5023973;28;20064;-61
2022/04/07 00:38:32;;;;;;;4.15;1.50;;;;;;;;;;5030546;28;20057;-62
2022/04/07 00:40:59;;;;;;;11.32;2.03;;;;;;;;;;5013112;28;20077;-60
2022/04/07 00:43:30;;;;;;;3.78;1.33;;;;;;;;;;5008801;28;20053;-61
2022/04/07 00:45:56;;;;;;;6.72;1.63;;;;;;;;;;5017890;28;20045;-60
2022/04/07 00:48:26;;;;;;;3.85;1.90;;;;;;;;;;5030054;28;20061;-62
2022/04/07 00:50:53;;;;;;;3.20;1.65;;;;;;;;;;5025303;28;20042;-62
2022/04/07 00:53:19;;;;;;;3.80;1.60;;;;;;;;;;5030250;28;20053;-62
2022/04/07 00:55:46;;;;;;;6.05;1.60;;;;;;;;;;5024186;28;20045;-60
2022/04/07 00:58:13;;;;;;;5.82;1.50;;;;;;;;;;5030457;28;20056;-59
2022/04/07 01:00:40;;;;;;;2.65;1.35;;;;;;;;;;5021497;28;20127;-63
2022/04/07 01:03:07;;;;;;;4.82;1.63;;;;;;;;;;5009968;28;20064;-61
2022/04/07 01:05:35;;;;;;;5.72;1.40;;;;;;;;;;5006438;28;20108;-59
2022/04/07 01:08:02;;;;;;;4.60;1.53;;;;;;;;;;5029701;28;20141;-61
2022/04/07 01:10:30;;;;;;;4.05;1.17;;;;;;;;;;5031500;28;20061;-61
2022/04/07 01:12:56;;;;;;;4.45;1.42;;;;;;;;;;5029550;28;20114;-62
2022/04/07 01:15:23;;;;;;;3.55;1.15;;;;;;;;;;5034441;28;20053;-63
2022/04/07 01:17:49;;;;;;;2.55;1.20;;;;;;;;;;5025200;28;20507;-64
2022/04/07 01:20:16;;;;;;;6.47;1.40;;;;;;;;;;5029626;28;20058;-60
2022/04/07 01:22:45;;;;;;;6.03;1.23;;;;;;;;;;5037734;28;20060;-60
2022/04/07 01:25:13;;;;;;;5.88;1.50;;;;;;;;;;5049843;28;20041;-59
2022/04/07 01:27:46;;;;;;;3.88;1.30;;;;;;;;;;5043142;28;20059;-61
2022/04/07 01:30:12;;;;;;;4.43;1.52;;;;;;;;;;5049722;28;20067;-59
2022/04/07 01:32:41;;;;;;;5.78;1.67;;;;;;;;;;5034307;28;20100;-59
2022/04/07 01:35:08;;;;;;;6.20;1.27;;;;;;;;;;5029926;28;20057;-58
2022/04/07 01:37:36;;;;;;;2.92;1.25;;;;;;;;;;5024008;28;20053;-63
2022/04/07 01:40:03;;;;;;;3.58;1.27;;;;;;;;;;5030217;28;20139;-60
2022/04/07 01:42:32;;;;;;;7.05;1.17;;;;;;;;;;5030466;28;20045;-64
2022/04/07 01:45:01;;;;;;;6.82;1.45;;;;;;;;;;5051469;28;20060;-61
2022/04/07 01:47:29;;;;;;;1.92;0.88;;;;;;;;;;5042194;28;20198;-58
2022/04/07 01:49:58;;;;;;;3.30;1.00;;;;;;;;;;5028675;28;20045;-58
2022/04/07 01:52:25;;;;;;;5.80;1.27;;;;;;;;;;5013734;28;20053;-58
2022/04/07 01:54:54;;;;;;;5.00;1.02;;;;;;;;;;5057370;28;20052;-61
2022/04/07 01:57:23;;;;;;;3.63;1.10;;;;;;;;;;5049189;28;20059;-58
2022/04/07 01:59:51;;;;;;;6.47;1.40;;;;;;;;;;5029147;28;20140;-59
2022/04/07 02:02:18;;;;;;;5.53;1.13;;;;;;;;;;5048834;28;20061;-63
2022/04/07 02:04:54;;;;;;;1.45;0.90;;;;;;;;;;5022888;28;20136;-58
2022/04/07 02:07:21;;;;;;;6.03;1.63;;;;;;;;;;5029053;28;20065;-60
2022/04/07 02:09:48;;;;;;;2.78;1.10;;;;;;;;;;5038964;28;20061;-58
2022/04/07 02:12:15;;;;;;;3.05;1.00;;;;;;;;;;5048789;28;20140;-59
2022/04/07 02:14:42;;;;;;;6.15;1.20;;;;;;;;;;5030761;28;20049;-59
2022/04/07 02:17:12;;;;;;;3.67;1.00;;;;;;;;;;5029195;28;20049;-61
2022/04/07 02:19:38;;;;;;;3.53;1.15;;;;;;;;;;5023853;28;20051;-61
2022/04/07 02:22:05;;;;;;;5.05;1.17;;;;;;;;;;5029425;28;20054;-61
2022/04/07 02:24:32;;;;;;;2.83;1.00;;;;;;;;;;5032320;28;20094;-58
2022/04/07 02:26:59;;;;;;;3.30;1.60;;;;;;;;;;5049065;28;20084;-58
2022/04/07 02:29:25;;;;;;;4.28;1.40;;;;;;;;;;5042401;28;20065;-59
2022/04/07 02:31:52;;;;;;;3.75;1.20;;;;;;;;;;5047684;28;20120;-59
2022/04/07 02:34:20;;;;;;;4.30;1.40;;;;;;;;;;5038433;28;20053;-62
2022/04/07 02:36:48;;;;;;;2.75;1.10;;;;;;;;;;5029409;28;20080;-59
2022/04/07 02:39:15;;;;;;;3.13;1.20;;;;;;;;;;5024541;28;20134;-58
2022/04/07 02:41:41;;;;;;;4.35;1.10;;;;;;;;;;5030036;28;20617;-60
2022/04/07 02:44:08;;;;;;;1.80;1.00;;;;;;;;;;5029628;28;20054;-58
2022/04/07 02:46:35;;;;;;;4.25;1.13;;;;;;;;;;5023766;28;20057;-59
2022/04/07 02:49:01;;;;;;;4.25;1.15;;;;;;;;;;5029069;28;20053;-62
2022/04/07 02:51:31;;;;;;;4.00;1.30;;;;;;;;;;5023156;28;20045;-62
2022/04/07 02:53:58;;;;;;;8.70;1.60;;;;;;;;;;5020047;28;20124;-60
2022/04/07 02:56:25;;;;;;;11.50;1.50;;;;;;;;;;5029071;28;20146;-63
2022/04/07 02:58:51;;;;;;;13.43;1.92;;;;;;;;;;5029748;28;20125;-61
2022/04/07 03:01:18;;;;;;;5.03;1.20;;;;;;;;;;5024731;28;20049;-59
2022/04/07 03:03:44;;;;;;;15.80;1.50;;;;;;;;;;5049164;28;20132;-61
2022/04/07 03:06:11;;;;;;;3.60;1.27;;;;;;;;;;5041440;28;20053;-62
2022/04/07 03:08:39;;;;;;;7.72;1.27;;;;;;;;;;5049495;28;20041;-60
2022/04/07 03:11:08;;;;;;;6.22;1.08;;;;;;;;;;5036670;28;20037;-61
2022/04/07 03:13:36;;;;;;;4.03;1.05;;;;;;;;;;5029870;28;20086;-60
2022/04/07 03:16:03;;;;;;;4.85;1.23;;;;;;;;;;5040599;28;20060;-61
2022/04/07 03:18:30;;;;;;;5.72;1.80;;;;;;;;;;5029558;28;20097;-61
2022/04/07 03:20:56;;;;;;;5.28;1.27;;;;;;;;;;5024548;28;20068;-60
2022/04/07 03:23:23;;;;;;;7.03;1.35;;;;;;;;;;5028400;28;20082;-60
2022/04/07 03:25:51;;;;;;;6.20;1.35;;;;;;;;;;5028295;28;20515;-61
2022/04/07 03:28:18;;;;;;;6.47;0.88;;;;;;;;;;5024028;28;20115;-61
2022/04/07 03:30:44;;;;;;;4.40;1.20;;;;;;;;;;5028679;28;20064;-60
2022/04/07 03:33:11;;;;;;;12.75;1.40;;;;;;;;;;5022312;28;20061;-62
2022/04/07 03:35:38;;;;;;;5.28;1.10;;;;;;;;;;5028694;28;20068;-59
2022/04/07 03:38:06;;;;;;;6.47;1.77;;;;;;;;;;5021775;28;20057;-59
2022/04/07 03:40:34;;;;;;;2.28;0.93;;;;;;;;;;5027950;28;20568;-58
2022/04/07 03:43:02;;;;;;;4.40;1.17;;;;;;;;;;5022470;28;20071;-60
2022/04/07 03:45:29;;;;;;;7.65;1.10;;;;;;;;;;5028331;28;20053;-61
2022/04/07 03:47:56;;;;;;;10.77;1.30;;;;;;;;;;5021924;28;20049;-59
2022/04/07 03:50:22;;;;;;;5.63;1.08;;;;;;;;;;5028269;28;20061;-60
2022/04/07 03:52:49;;;;;;;4.10;0.93;;;;;;;;;;5021691;28;20049;-59
2022/04/07 03:55:15;;;;;;;2.95;1.30;;;;;;;;;;5028403;28;20053;-58
2022/04/07 03:57:43;;;;;;;2.67;0.93;;;;;;;;;;5022967;28;20041;-61
2022/04/07 04:00:11;;;;;;;9.48;1.67;;;;;;;;;;5027827;28;20072;-61
2022/04/07 04:02:38;;;;;;;5.10;1.50;;;;;;;;;;5021594;28;20061;-62
2022/04/07 04:05:07;;;;;;;7.15;1.48;;;;;;;;;;5003963;28;20046;-61
2022/04/07 04:07:36;;;;;;;8.70;1.75;;;;;;;;;;5025507;28;20049;-61
2022/04/07 04:10:03;;;;;;;4.85;1.35;;;;;;;;;;5025020;28;20057;-59
2022/04/07 04:12:29;;;;;;;6.93;1.33;;;;;;;;;;5043643;28;20073;-61
2022/04/07 04:14:56;;;;;;;5.22;1.27;;;;;;;;;;5020077;28;20143;-59
2022/04/07 04:17:27;;;;;;;6.00;1.10;;;;;;;;;;5027182;28;20050;-61
2022/04/07 04:19:54;;;;;;;7.10;0.98;;;;;;;;;;5025871;28;20060;-59
2022/04/07 04:22:20;;;;;;;4.22;0.95;;;;;;;;;;5047612;28;20091;-61
2022/04/07 04:24:48;;;;;;;7.95;1.30;;;;;;;;;;5037272;28;20053;-62
2022/04/07 04:27:16;;;;;;;6.68;1.20;;;;;;;;;;5026545;28;20049;-62
2022/04/07 04:29:43;;;;;;;7.38;1.48;;;;;;;;;;5024712;28;20053;-58
2022/04/07 04:32:10;;;;;;;5.97;1.30;;;;;;;;;;5045358;28;20518;-59
2022/04/07 04:34:38;;;;;;;5.78;1.33;;;;;;;;;;5046770;28;20114;-59
2022/04/07 04:37:05;;;;;;;4.47;1.13;;;;;;;;;;5030623;28;20053;-59
2022/04/07 04:39:31;;;;;;;10.55;1.33;;;;;;;;;;5026947;28;20050;-58
2022/04/07 04:41:58;;;;;;;6.75;1.15;;;;;;;;;;5020379;28;20057;-59
2022/04/07 04:44:24;;;;;;;9.55;1.65;;;;;;;;;;5025386;28;20439;-60
2022/04/07 04:46:53;;;;;;;9.18;1.50;;;;;;;;;;5028803;28;20077;-62
2022/04/07 04:49:19;;;;;;;;;;;;;;;;;;5029599;28;20053;-59
2022/04/07 04:51:48;;;;;;;6.07;1.05;;;;;;;;;;5031407;28;20019;-58
2022/04/07 04:54:14;;;;;;;9.98;1.88;;;;;;;;;;5021861;28;20084;-60
2022/04/07 04:56:41;;;;;;;3.55;1.08;;;;;;;;;;5029757;28;20058;-58
2022/04/07 04:59:09;;;;;;;5.25;1.20;;;;;;;;;;5023725;28;20054;-57
2022/04/07 05:01:35;;;;;;;4.45;1.20;;;;;;;;;;5025609;28;20072;-60
2022/04/07 05:04:02;;;;;;;9.05;1.20;;;;;;;;;;5031702;28;20049;-57
2022/04/07 05:06:28;;;;;;;7.05;1.13;;;;;;;;;;5021875;28;20045;-58
2022/04/07 05:08:56;;;;;;;2.60;0.88;;;;;;;;;;5029772;28;20065;-58
2022/04/07 05:11:23;;;;;;;4.43;1.10;;;;;;;;;;5022140;28;20587;-57
2022/04/07 05:13:52;;;;;;;2.53;1.10;;;;;;;;;;5032912;28;20141;-57
2022/04/07 05:16:18;;;;;;;5.65;1.60;;;;;;;;;;5028734;28;20055;-58
2022/04/07 05:18:47;;;;;;;5.85;1.38;;;;;;;;;;5024410;28;20158;-59
2022/04/07 05:21:14;;;;;;;5.68;1.00;;;;;;;;;;5031810;28;20487;-59
2022/04/07 05:23:41;;;;;;;8.25;1.50;;;;;;;;;;5022921;28;20049;-59
2022/04/07 05:26:09;;;;;;;3.72;1.13;;;;;;;;;;5030733;28;20100;-60
2022/04/07 05:28:37;;;;;;;7.65;1.20;;;;;;;;;;5023966;28;20050;-60
2022/04/07 05:31:04;;;;;;;;;;;;;;;;;;5045782;28;20077;-57
2022/04/07 05:33:30;;;;;;;9.27;1.33;;;;;;;;;;5024266;28;20342;-60
2022/04/07 05:35:57;;;;;;;7.65;1.33;;;;;;;;;;5028843;28;20060;-59
2022/04/07 05:38:24;;;;;;;5.97;1.17;;;;;;;;;;5023527;28;20050;-58
2022/04/07 05:40:50;;;;;;;3.92;0.98;;;;;;;;;;5029080;28;20045;-58
2022/04/07 05:43:19;;;;;;;5.60;1.00;;;;;;;;;;5024063;28;20033;-59
2022/04/07 05:45:45;;;;;;;2.47;0.93;;;;;;;;;;5029087;28;20143;-59
2022/04/07 05:48:12;;;;;;;4.65;1.20;;;;;;;;;;5023405;28;20068;-59
2022/04/07 05:50:39;;;;;;;2.42;0.90;;;;;;;;;;5028957;28;20056;-58
2022/04/07 05:53:06;;;;;;;2.08;0.93;;;;;;;;;;5028892;28;20068;-58
2022/04/07 05:55:33;;;;;;;5.55;0.95;;;;;;;;;;5022407;28;20111;-59
2022/04/07 05:58:01;;;;;;;2.97;0.88;;;;;;;;;;5045342;28;20072;-61
2022/04/07 06:00:29;;;;;;;3.70;0.82;;;;;;;;;;5039583;28;20072;-59
2022/04/07 06:02:56;;;;;;;2.03;0.55;;;;;;;;;;5028333;28;20108;-58
2022/04/07 06:05:22;;;;;;;1.77;0.65;;;;;;;;;;5023060;28;20077;-58
2022/04/07 06:07:49;;;;;;;3.15;0.88;;;;;;;;;;5028985;28;20111;-62
2022/04/07 06:10:16;;;;;;;1.58;0.77;;;;;;;;;;5023304;28;20068;-58
2022/04/07 06:12:43;;;;;;;1.80;0.70;;;;;;;;;;5028580;28;20058;-57
2022/04/07 06:15:10;;;;;;;1.50;0.60;;;;;;;;;;5023142;28;20108;-58
2022/04/07 06:17:40;;;;;;;5.35;0.57;;;;;;;;;;5029213;28;20057;-58
2022/04/07 06:20:07;;;;;;;1.77;0.73;;;;;;;;;;5016858;28;20064;-60
2022/04/07 06:22:34;;;;;;;2.65;1.00;;;;;;;;;;5028320;28;20061;-60
2022/04/07 06:25:01;;;;;;;3.53;0.90;;;;;;;;;;5022270;28;20060;-59
2022/04/07 06:27:33;;;;;;;3.63;0.90;;;;;;;;;;5028517;28;20136;-61
2022/04/07 06:30:00;;;;;;;1.50;0.70;;;;;;;;;;5038348;28;20057;-63
2022/04/07 06:32:26;;;;;;;2.88;0.80;;;;;;;;;;5027966;28;20050;-61
2022/04/07 06:34:55;;;;;;;2.10;0.80;;;;;;;;;;5027990;28;20053;-60
2022/04/07 06:37:22;;;;;;;2.55;0.70;;;;;;;;;;5026546;28;20053;-59
2022/04/07 06:39:48;;;;;;;1.85;0.90;;;;;;;;;;5028426;28;20050;-59
2022/04/07 06:42:15;;;;;;;2.00;0.80;;;;;;;;;;5021659;28;20049;-58
2022/04/07 06:44:42;;;;;;;3.30;0.90;;;;;;;;;;5028670;28;20045;-59
2022/04/07 06:47:09;;;;;;;2.80;0.90;;;;;;;;;;5021621;28;20056;-60
2022/04/07 06:49:35;;;;;;;2.00;0.70;;;;;;;;;;5028019;28;20060;-58
2022/04/07 06:52:03;;;;;;;3.65;0.47;;;;;;;;;;5021690;28;20067;-60
2022/04/07 06:54:30;;;;;;;0.82;0.30;;;;;;;;;;5028195;28;20049;-62
2022/04/07 06:56:56;;;;;;;0.55;0.40;;;;;;;;;;5022134;28;20139;-62
2022/04/07 06:59:23;;;;;;;0.88;0.38;;;;;;;;;;5027861;28;20085;-61
2022/04/07 07:01:50;;;;;;;0.85;0.30;;;;;;;;;;5022030;28;20053;-61
2022/04/07 07:04:16;;;;;;;1.45;0.47;;;;;;;;;;5029089;28;20049;-64
2022/04/07 07:06:43;;;;;;;2.67;0.30;;;;;;;;;;5021596;28;20053;-59
2022/04/07 07:09:11;;;;;;;1.98;0.47;;;;;;;;;;5027740;28;20085;-62
2022/04/07 07:11:39;;;;;;;3.28;0.47;;;;;;;;;;5022208;28;20053;-61
2022/04/07 07:14:06;;;;;;;1.00;0.40;;;;;;;;;;5027514;28;20054;-61
2022/04/07 07:16:34;;;;;;;3.90;0.60;;;;;;;;;;5024821;28;20053;-59
2022/04/07 07:19:01;;;;;;;1.13;0.50;;;;;;;;;;5026301;28;20045;-59
2022/04/07 07:21:27;;;;;;;1.80;0.38;;;;;;;;;;5027987;28;20478;-58
2022/04/07 07:23:54;;;;;;;1.58;0.57;;;;;;;;;;5021732;28;20061;-61
2022/04/07 07:26:22;;;;;;;1.80;0.47;;;;;;;;;;5027485;28;20065;-62
2022/04/07 07:28:48;;;;;;;0.80;0.40;;;;;;;;;;5038212;28;20076;-59
2022/04/07 07:31:15;;;;;;;1.10;0.50;;;;;;;;;;5027701;28;20056;-63
2022/04/07 07:33:41;;;;;;;2.20;0.60;;;;;;;;;;5021487;28;20084;-59
2022/04/07 07:36:08;;;;;;;2.67;0.63;;;;;;;;;;5027164;28;20069;-61
2022/04/07 07:38:34;;;;;;;1.80;0.40;;;;;;;;;;5022126;28;20061;-61
2022/04/07 07:41:02;;;;;;;4.18;0.57;;;;;;;;;;5027296;28;20083;-57
2022/04/07 07:43:29;;;;;;;4.18;0.52;;;;;;;;;;5021660;28;20060;-59
2022/04/07 07:45:56;;;;;;;4.10;0.50;;;;;;;;;;5026922;28;20155;-61
2022/04/07 07:48:26;;;;;;;1.65;0.47;;;;;;;;;;5021187;28;20045;-59
2022/04/07 07:50:53;;;;;;;3.30;0.47;;;;;;;;;;5027197;28;20136;-57
2022/04/07 07:53:20;;;;;;;2.67;0.50;;;;;;;;;;5021273;28;20054;-58
2022/04/07 07:55:46;;;;;;;5.15;1.10;;;;;;;;;;5044047;28;20053;-62
2022/04/07 07:58:13;;;;;;;5.03;1.27;;;;;;;;;;5039152;28;20103;-57
2022/04/07 08:00:41;;;;;;;2.78;0.70;;;;;;;;;;5043144;28;20061;-63
2022/04/07 08:03:07;;;;;;;1.80;0.60;;;;;;;;;;5026327;28;20081;-62
2022/04/07 08:05:35;;;;;;;4.85;0.80;;;;;;;;;;5004801;28;20057;-61
2022/04/07 08:08:03;;;;;;;4.60;0.95;;;;;;;;;;5027228;28;20050;-61
2022/04/07 08:10:29;;;;;;;0.68;0.45;;;;;;;;;;5020932;28;20119;-63
2022/04/07 08:12:56;;;;;;;2.22;0.70;;;;;;;;;;5026272;28;20111;-58
2022/04/07 08:15:23;;;;;;;4.15;0.50;;;;;;;;;;5037204;28;20061;-58
2022/04/07 08:17:53;;;;;;;1.55;0.40;;;;;;;;;;5046777;28;20093;-60
2022/04/07 08:20:19;;;;;;;0.63;0.40;;;;;;;;;;5040299;28;20045;-59
2022/04/07 08:22:46;;;;;;;2.03;0.50;;;;;;;;;;5046094;28;20376;-63
2022/04/07 08:25:12;;;;;;;1.85;0.30;;;;;;;;;;5041888;28;20053;-61
2022/04/07 08:27:41;;;;;;;0.73;0.40;;;;;;;;;;5051112;28;20137;-58
2022/04/07 08:30:08;;;;;;;1.55;0.55;;;;;;;;;;5038689;28;20050;-60
2022/04/07 08:32:35;;;;;;;1.65;0.50;;;;;;;;;;5030605;28;20041;-58
2022/04/07 08:35:03;;;;;;;1.85;0.52;;;;;;;;;;5024891;28;20127;-57
2022/04/07 08:37:29;;;;;;;4.85;1.02;;;;;;;;;;5031059;28;20062;-58
2022/04/07 08:39:56;;;;;;;1.88;0.40;;;;;;;;;;5025285;28;20053;-58
2022/04/07 08:42:23;;;;;;;1.85;0.60;;;;;;;;;;5030080;28;20462;-61
2022/04/07 08:44:49;;;;;;;5.05;0.55;;;;;;;;;;5030702;28;20053;-62
2022/04/07 08:47:18;;;;;;;0.77;0.50;;;;;;;;;;5024996;28;20117;-59
2022/04/07 08:49:45;;;;;;;4.15;0.50;;;;;;;;;;5030084;28;20057;-63
2022/04/07 08:52:14;;;;;;;2.67;0.60;;;;;;;;;;5024530;28;20045;-59
2022/04/07 08:54:40;;;;;;;0.85;0.35;;;;;;;;;;5030509;28;20068;-58
2022/04/07 08:57:07;;;;;;;3.47;0.60;;;;;;;;;;5024604;28;20064;-60
2022/04/07 08:59:33;;;;;;;4.13;0.40;;;;;;;;;;5030375;28;20061;-58
2022/04/07 09:02:01;;;;;;;1.27;0.45;;;;;;;;;;5024622;28;20458;-61
2022/04/07 09:04:30;;;;;;;2.97;0.60;;;;;;;;;;5021634;28;20042;-64
2022/04/07 09:06:56;;;;;;;2.05;0.63;;;;;;;;;;5020206;28;20045;-58
2022/04/07 09:09:24;;;;;;;4.50;0.55;;;;;;;;;;5029983;28;20057;-59
2022/04/07 09:11:53;;;;;;;4.60;0.73;;;;;;;;;;5011659;28;20057;-62
2022/04/07 09:14:20;;;;;;;1.58;0.50;;;;;;;;;;5037887;28;20045;-60
2022/04/07 09:16:48;;;;;;;1.17;0.35;;;;;;;;;;5028479;28;20056;-59
2022/04/07 09:19:14;;;;;;;1.58;0.32;;;;;;;;;;5045919;28;20053;-60
2022/04/07 09:21:41;;;;;;;1.75;0.50;;;;;;;;;;5049514;28;20115;-58
2022/04/07 09:24:08;;;;;;;9.43;1.10;;;;;;;;;;5033447;28;20148;-60
2022/04/07 09:26:39;;;;;;;7.13;0.52;;;;;;;;;;5029899;28;20060;-61
2022/04/07 09:29:09;;;;;;;4.47;0.70;;;;;;;;;;5023334;28;20056;-62
2022/04/07 09:31:40;;;;;;;1.77;0.60;;;;;;;;;;5027457;28;20061;-59
2022/04/07 09:34:07;;;;;;;3.38;0.60;;;;;;;;;;5022806;28;20128;-58
2022/04/07 09:36:33;;;;;;;3.97;0.45;;;;;;;;;;5019593;28;20060;-58
2022/04/07 09:39:00;;;;;;;3.83;0.70;;;;;;;;;;5030162;28;20049;-58
2022/04/07 09:41:28;;;;;;;5.72;0.60;;;;;;;;;;5021609;28;20064;-62
2022/04/07 09:43:58;;;;;;;4.63;1.15;;;;;;;;;;5029082;28;20045;-59
2022/04/07 09:46:26;;;;;;;3.40;0.60;;;;;;;;;;5023498;28;20046;-59
2022/04/07 09:48:59;;;;;;;5.07;0.80;;;;;;;;;;5027526;28;20057;-59
2022/04/07 09:51:26;;;;;;;4.78;1.00;;;;;;;;;;5028979;28;20093;-60
2022/04/07 09:53:55;;;;;;;3.35;0.57;;;;;;;;;;5018537;28;20049;-57
2022/04/07 09:56:22;;;;;;;3.97;0.77;;;;;;;;;;5029223;28;20058;-61
2022/04/07 09:58:49;;;;;;;2.95;0.50;;;;;;;;;;5025042;28;20057;-59
2022/04/07 10:01:17;;;;;;;4.05;0.65;;;;;;;;;;5049088;28;20441;-59
2022/04/07 10:03:44;;;;;;;4.70;0.65;;;;;;;;;;5040987;28;20057;-58
2022/04/07 10:06:14;;;;;;;6.95;0.90;;;;;;;;;;5027060;28;20053;-57
2022/04/07 10:08:41;;;;;;;3.75;0.88;;;;;;;;;;5028148;28;20103;-58
2022/04/07 10:11:08;;;;;;;4.15;0.70;;;;;;;;;;5030570;28;20059;-58
2022/04/07 10:13:36;;;;;;;16.90;1.15;;;;;;;;;;5047360;28;20105;-59
2022/04/07 10:16:03;;;;;;;8.85;0.60;;;;;;;;;;5020434;28;20071;-59
2022/04/07 10:18:34;;;;;;;3.13;0.60;;;;;;;;;;5028616;28;20056;-63
2022/04/07 10:21:02;;;;;;;5.15;0.55;;;;;;;;;;5022153;28;20057;-58
2022/04/07 10:23:36;;;;;;;9.70;0.93;;;;;;;;;;5026292;28;20045;-59
2022/04/07 10:26:03;;;;;;;6.10;0.80;;;;;;;;;;5028644;28;20041;-59
2022/04/07 10:28:30;;;;;;;11.23;1.17;;;;;;;;;;5004195;28;20141;-62
2022/04/07 10:30:57;;;;;;;2.67;0.47;;;;;;;;;;5008647;28;20057;-63
2022/04/07 10:33:35;;;;;;;8.40;1.30;;;;;;;;;;5020216;28;20049;-60
2022/04/07 10:36:07;;;;;;;5.00;1.00;;;;;;;;;;5028600;28;20096;-60
2022/04/07 10:38:37;;;;;;;8.15;1.10;;;;;;;;;;5023352;28;20045;-60
2022/04/07 10:41:04;;;;;;;6.65;1.13;;;;;;;;;;5027918;28;20065;-58
2022/04/07 10:43:31;;;;;;;8.13;1.00;;;;;;;;;;5022515;28;20065;-60
2022/04/07 10:46:11;;;;;;;8.15;1.10;;;;;;;;;;5028767;28;20081;-58
2022/04/07 10:48:44;;;;;;;8.88;1.27;;;;;;;;;;5022633;28;20063;-57
2022/04/07 10:51:11;;;;;;;8.90;1.23;;;;;;;;;;5029122;28;20060;-59
2022/04/07 10:53:39;;;;;;;7.95;1.30;;;;;;;;;;5022877;28;20057;-58
2022/04/07 10:56:07;;;;;;;5.30;0.98;;;;;;;;;;5019711;28;20065;-58
2022/04/07 10:58:52;;;;;;;8.73;1.40;;;;;;;;;;5039060;28;20079;-58
2022/04/07 11:01:48;;;;;;;5.38;0.77;;;;;;;;;;5027487;28;20056;-63
2022/04/07 11:04:36;;;;;;;13.50;2.13;;;;;;;;;;5022586;28;20049;-61
2022/04/07 11:07:13;;;;;;;5.47;0.93;;;;;;;;;;5026949;28;20486;-60
2022/04/07 11:09:47;;;;;;;6.53;1.25;;;;;;;;;;5022040;28;20525;-61
2022/04/07 11:12:17;;;;;;;9.57;2.00;;;;;;;;;;5027672;28;20061;-61
2022/04/07 11:14:44;;;;;;;10.57;1.20;;;;;;;;;;5021307;28;20061;-58
2022/04/07 11:17:13;;;;;;;8.20;1.73;;;;;;;;;;5027805;28;20056;-59
2022/04/07 11:19:46;;;;;;;9.77;1.50;;;;;;;;;;5021611;28;20050;-57
2022/04/07 11:22:13;;;;;;;5.05;1.25;;;;;;;;;;5026875;28;20053;-58
2022/04/07 11:24:44;;;;;;;10.63;0.93;;;;;;;;;;5021524;28;20053;-61
2022/04/07 11:27:31;;;;;;;9.25;1.42;;;;;;;;;;5027421;28;20050;-58
2022/04/07 11:30:04;;;;;;;8.38;1.17;;;;;;;;;;5025111;28;20050;-58
2022/04/07 11:32:31;;;;;;;9.68;1.00;;;;;;;;;;5044087;28;20049;-60
2022/04/07 11:35:11;;;;;;;9.02;1.38;;;;;;;;;;5021861;28;20084;-59
2022/04/07 11:37:39;;;;;;;9.90;1.33;;;;;;;;;;5027882;28;20053;-61
2022/04/07 11:40:08;;;;;;;2.88;0.52;;;;;;;;;;5021924;28;20045;-59
2022/04/07 11:42:35;;;;;;;8.35;1.20;;;;;;;;;;5027267;28;20075;-59
2022/04/07 11:45:02;;;;;;;7.97;1.60;;;;;;;;;;5021562;28;20053;-60
2022/04/07 11:47:30;;;;;;;6.35;0.88;;;;;;;;;;5027223;28;20053;-60
2022/04/07 11:49:57;;;;;;;10.70;1.30;;;;;;;;;;5012790;28;20358;-58
2022/04/07 11:52:25;;;;;;;8.18;1.33;;;;;;;;;;5009400;28;20057;-60
2022/04/07 11:54:52;;;;;;;;;;;;;;;;;;5020664;28;20675;-58
2022/04/07 11:57:18;;;;;;;15.23;1.88;;;;;;;;;;5044082;28;19925;-61
2022/04/07 11:59:45;;;;;;;8.98;1.88;;;;;;;;;;5023065;28;20093;-58
2022/04/07 12:02:19;;;;;;;17.55;1.65;;;;;;;;;;5024421;28;20077;-60
2022/04/07 12:04:46;;;;;;;8.98;1.35;;;;;;;;;;5027034;28;20053;-62
2022/04/07 12:07:12;;;;;;;7.93;1.35;;;;;;;;;;5020766;28;20042;-63
2022/04/07 12:09:40;;;;;;;10.32;1.10;;;;;;;;;;5027150;28;20064;-63
2022/04/07 12:12:07;;;;;;;9.73;1.38;;;;;;;;;;5004740;28;20068;-63
2022/04/07 12:14:34;;;;;;;8.85;1.17;;;;;;;;;;5016145;28;20053;-60
2022/04/07 12:17:00;;;;;;;13.68;1.63;;;;;;;;;;5021062;28;20088;-61
2022/04/07 12:19:42;;;;;;;8.48;1.58;;;;;;;;;;5026224;28;20111;-62
2022/04/07 12:22:09;;;;;;;10.80;1.95;;;;;;;;;;5019966;28;20054;-66
2022/04/07 12:24:36;;;;;;;10.55;1.27;;;;;;;;;;5027362;28;20140;-62
2022/04/07 12:27:07;;;;;;;7.07;1.35;;;;;;;;;;5020882;28;20057;-64
2022/04/07 12:29:34;;;;;;;12.52;1.35;;;;;;;;;;5026865;28;20487;-63
2022/04/07 12:32:01;;;;;;;10.43;1.65;;;;;;;;;;5013145;28;20053;-63
2022/04/07 12:34:28;;;;;;;8.98;1.52;;;;;;;;;;5006809;28;20125;-60
2022/04/07 12:36:56;;;;;;;8.48;1.27;;;;;;;;;;5007841;28;20057;-62
2022/04/07 12:39:22;;;;;;;7.85;1.52;;;;;;;;;;5026547;28;20141;-64
2022/04/07 12:41:50;;;;;;;4.45;0.90;;;;;;;;;;5037462;28;20446;-60
2022/04/07 12:44:21;;;;;;;12.85;1.52;;;;;;;;;;5025646;28;20061;-59
2022/04/07 12:46:52;;;;;;;14.60;1.58;;;;;;;;;;5021050;28;20070;-60
2022/04/07 12:49:25;;;;;;;7.55;0.68;;;;;;;;;;5025995;28;20053;-59
2022/04/07 12:52:02;;;;;;;12.98;1.90;;;;;;;;;;5021272;28;20049;-62
2022/04/07 12:54:29;;;;;;;10.05;1.25;;;;;;;;;;5023738;28;20514;-60
2022/04/07 12:57:11;;;;;;;10.40;1.83;;;;;;;;;;5006793;28;20061;-63
2022/04/07 12:59:40;;;;;;;10.73;1.52;;;;;;;;;;5020573;28;20057;-58
2022/04/07 13:02:07;;;;;;;7.82;0.88;;;;;;;;;;5006549;28;20056;-62
2022/04/07 13:04:47;;;;;;;11.63;2.08;;;;;;;;;;5013201;28;20049;-63
2022/04/07 13:07:13;;;;;;;13.32;1.30;;;;;;;;;;5022803;28;20061;-62
2022/04/07 13:09:40;;;;;;;8.13;1.23;;;;;;;;;;5033539;28;20049;-59
2022/04/07 13:12:07;;;;;;;9.48;1.52;;;;;;;;;;5028344;28;20140;-59
2022/04/07 13:14:34;;;;;;;7.18;0.93;;;;;;;;;;5022101;28;20049;-59
2022/04/07 13:17:02;;;;;;;18.83;1.45;;;;;;;;;;5029231;28;20148;-58
2022/04/07 13:19:29;;;;;;;5.95;1.13;;;;;;;;;;5024491;28;20391;-62
2022/04/07 13:21:56;;;;;;;10.25;1.48;;;;;;;;;;5028173;28;20056;-62
2022/04/07 13:24:23;;;;;;;7.90;1.10;;;;;;;;;;5022965;28;20050;-58
2022/04/07 13:26:50;;;;;;;5.65;1.17;;;;;;;;;;5029485;28;20072;-59
2022/04/07 13:29:18;;;;;;;11.30;1.60;;;;;;;;;;5023955;28;20072;-60
2022/04/07 13:31:45;;;;;;;5.53;1.15;;;;;;;;;;5045571;28;20057;-60
2022/04/07 13:34:13;;;;;;;2.92;0.50;;;;;;;;;;5023527;28;20523;-58
2022/04/07 13:36:40;;;;;;;5.47;0.82;;;;;;;;;;5029575;28;20065;-58
2022/04/07 13:39:07;;;;;;;6.55;1.13;;;;;;;;;;5023394;28;20140;-58
2022/04/07 13:41:34;;;;;;;7.20;1.55;;;;;;;;;;5030000;28;20061;-61
2022/04/07 13:44:00;;;;;;;7.53;1.27;;;;;;;;;;5023971;28;20041;-59
2022/04/07 13:46:27;;;;;;;11.18;1.30;;;;;;;;;;5028681;28;20049;-62
2022/04/07 13:48:54;;;;;;;7.47;1.10;;;;;;;;;;5026952;28;20069;-59
2022/04/07 13:51:22;;;;;;;5.80;1.13;;;;;;;;;;5025206;28;20087;-60
2022/04/07 13:53:49;;;;;;;8.95;1.20;;;;;;;;;;5030824;28;20047;-59
2022/04/07 13:56:15;;;;;;;8.07;1.30;;;;;;;;;;5023696;28;20049;-58
2022/04/07 13:58:42;;;;;;;12.20;1.13;;;;;;;;;;5028097;28;20053;-61
2022/04/07 14:01:10;;;;;;;4.57;1.10;;;;;;;;;;5022862;28;20068;-58
2022/04/07 14:03:38;;;;;;;8.57;1.47;;;;;;;;;;5028375;28;20114;-60
2022/04/07 14:06:05;;;;;;;10.05;1.45;;;;;;;;;;5010839;28;20046;-58
2022/04/07 14:08:34;;;;;;;7.05;1.33;;;;;;;;;;5008844;28;20050;-60
2022/04/07 14:11:01;;;;;;;4.57;1.00;;;;;;;;;;5004202;28;20131;-61
2022/04/07 14:13:28;;;;;;;5.82;1.23;;;;;;;;;;5008262;28;20054;-65
2022/04/07 14:15:54;;;;;;;9.70;0.90;;;;;;;;;;5020921;28;20050;-64
2022/04/07 14:18:22;;;;;;;9.38;1.27;;;;;;;;;;5027892;28;20053;-60
2022/04/07 14:20:49;;;;;;;5.93;1.08;;;;;;;;;;5017420;28;20090;-61
2022/04/07 14:23:16;;;;;;;4.50;1.30;;;;;;;;;;5018813;28;20053;-60
2022/04/07 14:25:45;;;;;;;17.80;1.73;;;;;;;;;;5021461;28;20133;-62
2022/04/07 14:28:12;;;;;;;10.45;1.13;;;;;;;;;;5028140;28;20068;-61
2022/04/07 14:30:39;;;;;;;12.48;1.58;;;;;;;;;;5024792;28;20057;-61
2022/04/07 14:33:05;;;;;;;5.30;1.05;;;;;;;;;;5048894;28;20045;-63
2022/04/07 14:35:32;;;;;;;9.07;2.10;;;;;;;;;;5048516;28;20057;-60
2022/04/07 14:37:59;;;;;;;6.30;0.88;;;;;;;;;;5024923;28;20051;-60
2022/04/07 14:40:26;;;;;;;10.07;1.30;;;;;;;;;;5027931;28;20103;-59
2022/04/07 14:42:54;;;;;;;9.02;1.15;;;;;;;;;;5020709;28;20092;-60
2022/04/07 14:45:21;;;;;;;8.50;1.10;;;;;;;;;;5027530;28;20049;-60
2022/04/07 14:47:49;;;;;;;11.07;1.75;;;;;;;;;;5015864;28;20087;-59